Terminal Aerodrome Forecast
Issued by NWS Caribou, ME

Home | Current Version | Previous Version | Text Only | Print | Product List | Glossary On
Versions: 1 2 3 4 5 6 7 8 9 10 11 12 13 14 15 16 17 18
961
FTUS41 KCAR 261728
TAFCAR
TAF
KCAR 261728Z 2618/2718 30008KT P6SM SCT060
     FM270700 00000KT P6SM SCT200
     FM271300 VRB03KT P6SM -SHRA SCT040 BKN090
     FM271600 VRB03KT 4SM -SHRA SCT025 BKN050=

USA.gov is the U.S. government's official web portal to all federal, state and local government web resources and services.